sensor_id;sensor_type;location;lat;lon;timestamp;P1;durP1;ratioP1;P2;durP2;ratioP2
6519;SDS011;3293;51.690;5.982;2022-12-13T00:04:31;48.93;;;26.20;;
6519;SDS011;3293;51.690;5.982;2022-12-13T00:09:31;46.47;;;27.00;;
6519;SDS011;3293;51.690;5.982;2022-12-13T00:14:31;41.00;;;24.43;;
6519;SDS011;3293;51.690;5.982;2022-12-13T00:19:31;38.83;;;23.47;;
6519;SDS011;3293;51.690;5.982;2022-12-13T00:24:31;35.77;;;22.83;;
6519;SDS011;3293;51.690;5.982;2022-12-13T00:29:31;33.50;;;21.93;;
6519;SDS011;3293;51.690;5.982;2022-12-13T00:34:31;37.03;;;21.97;;
6519;SDS011;3293;51.690;5.982;2022-12-13T00:39:31;38.03;;;23.43;;
6519;SDS011;3293;51.690;5.982;2022-12-13T00:44:31;34.47;;;22.33;;
6519;SDS011;3293;51.690;5.982;2022-12-13T00:49:31;35.97;;;21.60;;
6519;SDS011;3293;51.690;5.982;2022-12-13T00:54:31;33.97;;;21.27;;
6519;SDS011;3293;51.690;5.982;2022-12-13T00:59:31;29.87;;;21.27;;
6519;SDS011;3293;51.690;5.982;2022-12-13T01:04:31;34.90;;;21.30;;
6519;SDS011;3293;51.690;5.982;2022-12-13T01:09:31;32.80;;;19.90;;
6519;SDS011;3293;51.690;5.982;2022-12-13T01:14:35;32.53;;;20.47;;
6519;SDS011;3293;51.690;5.982;2022-12-13T01:19:36;37.57;;;21.10;;
6519;SDS011;3293;51.690;5.982;2022-12-13T01:24:36;36.70;;;20.60;;
6519;SDS011;3293;51.690;5.982;2022-12-13T01:29:37;34.43;;;21.20;;
6519;SDS011;3293;51.690;5.982;2022-12-13T01:34:37;37.47;;;20.97;;
6519;SDS011;3293;51.690;5.982;2022-12-13T01:39:37;31.57;;;19.33;;
6519;SDS011;3293;51.690;5.982;2022-12-13T01:49:55;33.30;;;20.97;;
6519;SDS011;3293;51.690;5.982;2022-12-13T01:54:58;37.20;;;22.30;;
6519;SDS011;3293;51.690;5.982;2022-12-13T02:00:00;33.70;;;21.73;;
6519;SDS011;3293;51.690;5.982;2022-12-13T02:10:08;38.37;;;21.73;;
6519;SDS011;3293;51.690;5.982;2022-12-13T02:15:10;35.00;;;21.80;;
6519;SDS011;3293;51.690;5.982;2022-12-13T02:20:37;34.97;;;22.27;;
6519;SDS011;3293;51.690;5.982;2022-12-13T02:25:53;33.87;;;21.10;;
6519;SDS011;3293;51.690;5.982;2022-12-13T02:31:10;39.00;;;22.20;;
6519;SDS011;3293;51.690;5.982;2022-12-13T02:36:29;33.53;;;20.60;;
6519;SDS011;3293;51.690;5.982;2022-12-13T02:41:38;40.50;;;22.07;;
6519;SDS011;3293;51.690;5.982;2022-12-13T02:47:18;36.10;;;20.33;;
6519;SDS011;3293;51.690;5.982;2022-12-13T02:52:16;40.70;;;21.63;;
6519;SDS011;3293;51.690;5.982;2022-12-13T02:57:29;32.57;;;20.10;;
6519;SDS011;3293;51.690;5.982;2022-12-13T03:08:19;32.73;;;20.93;;
6519;SDS011;3293;51.690;5.982;2022-12-13T03:18:55;37.43;;;21.43;;
6519;SDS011;3293;51.690;5.982;2022-12-13T03:23:57;35.83;;;21.37;;
6519;SDS011;3293;51.690;5.982;2022-12-13T03:28:57;31.47;;;20.10;;
6519;SDS011;3293;51.690;5.982;2022-12-13T03:33:57;34.73;;;21.03;;
6519;SDS011;3293;51.690;5.982;2022-12-13T03:38:57;34.73;;;20.60;;
6519;SDS011;3293;51.690;5.982;2022-12-13T03:43:58;35.43;;;22.23;;
6519;SDS011;3293;51.690;5.982;2022-12-13T03:48:59;45.70;;;26.07;;
6519;SDS011;3293;51.690;5.982;2022-12-13T03:53:59;48.80;;;27.70;;
6519;SDS011;3293;51.690;5.982;2022-12-13T03:58:59;51.70;;;28.63;;
6519;SDS011;3293;51.690;5.982;2022-12-13T04:04:00;42.67;;;25.60;;
6519;SDS011;3293;51.690;5.982;2022-12-13T04:09:00;41.43;;;24.37;;
6519;SDS011;3293;51.690;5.982;2022-12-13T04:14:00;33.20;;;22.13;;
6519;SDS011;3293;51.690;5.982;2022-12-13T04:19:00;40.50;;;22.47;;
6519;SDS011;3293;51.690;5.982;2022-12-13T04:24:00;34.43;;;22.40;;
6519;SDS011;3293;51.690;5.982;2022-12-13T04:29:00;39.07;;;21.33;;
6519;SDS011;3293;51.690;5.982;2022-12-13T04:34:00;33.17;;;21.10;;
6519;SDS011;3293;51.690;5.982;2022-12-13T04:39:00;31.80;;;20.53;;
6519;SDS011;3293;51.690;5.982;2022-12-13T04:44:02;34.47;;;21.97;;
6519;SDS011;3293;51.690;5.982;2022-12-13T04:49:03;32.77;;;21.23;;
6519;SDS011;3293;51.690;5.982;2022-12-13T04:54:03;35.13;;;21.57;;
6519;SDS011;3293;51.690;5.982;2022-12-13T04:59:03;33.20;;;20.97;;
6519;SDS011;3293;51.690;5.982;2022-12-13T05:04:03;34.90;;;21.33;;
6519;SDS011;3293;51.690;5.982;2022-12-13T05:09:04;36.77;;;21.73;;
6519;SDS011;3293;51.690;5.982;2022-12-13T05:14:04;38.00;;;20.60;;
6519;SDS011;3293;51.690;5.982;2022-12-13T05:19:04;34.43;;;20.47;;
6519;SDS011;3293;51.690;5.982;2022-12-13T05:24:04;34.10;;;21.27;;
6519;SDS011;3293;51.690;5.982;2022-12-13T05:29:04;30.77;;;20.30;;
6519;SDS011;3293;51.690;5.982;2022-12-13T05:34:05;35.07;;;21.90;;
6519;SDS011;3293;51.690;5.982;2022-12-13T05:39:05;37.07;;;20.97;;
6519;SDS011;3293;51.690;5.982;2022-12-13T05:44:05;40.27;;;22.00;;
6519;SDS011;3293;51.690;5.982;2022-12-13T05:49:05;35.17;;;20.37;;
6519;SDS011;3293;51.690;5.982;2022-12-13T05:54:05;34.67;;;21.50;;
6519;SDS011;3293;51.690;5.982;2022-12-13T05:59:11;42.77;;;22.73;;
6519;SDS011;3293;51.690;5.982;2022-12-13T06:04:15;40.00;;;20.37;;
6519;SDS011;3293;51.690;5.982;2022-12-13T06:09:15;37.67;;;22.63;;
6519;SDS011;3293;51.690;5.982;2022-12-13T06:14:15;44.53;;;24.73;;
6519;SDS011;3293;51.690;5.982;2022-12-13T06:19:15;45.20;;;26.27;;
6519;SDS011;3293;51.690;5.982;2022-12-13T06:24:15;47.27;;;24.53;;
6519;SDS011;3293;51.690;5.982;2022-12-13T06:29:18;43.47;;;25.27;;
6519;SDS011;3293;51.690;5.982;2022-12-13T06:34:20;44.97;;;26.30;;
6519;SDS011;3293;51.690;5.982;2022-12-13T06:39:20;47.47;;;25.43;;
6519;SDS011;3293;51.690;5.982;2022-12-13T06:44:19;43.37;;;27.07;;
6519;SDS011;3293;51.690;5.982;2022-12-13T06:49:19;39.07;;;25.03;;
6519;SDS011;3293;51.690;5.982;2022-12-13T06:54:19;41.90;;;24.47;;
6519;SDS011;3293;51.690;5.982;2022-12-13T06:59:19;48.43;;;26.93;;
6519;SDS011;3293;51.690;5.982;2022-12-13T07:04:19;43.50;;;26.10;;
6519;SDS011;3293;51.690;5.982;2022-12-13T07:09:19;47.60;;;27.03;;
6519;SDS011;3293;51.690;5.982;2022-12-13T07:14:19;44.33;;;25.90;;
6519;SDS011;3293;51.690;5.982;2022-12-13T07:19:20;46.50;;;27.37;;
6519;SDS011;3293;51.690;5.982;2022-12-13T07:24:19;48.90;;;28.37;;
6519;SDS011;3293;51.690;5.982;2022-12-13T07:29:19;47.17;;;26.90;;
6519;SDS011;3293;51.690;5.982;2022-12-13T07:34:19;47.13;;;27.37;;
6519;SDS011;3293;51.690;5.982;2022-12-13T07:39:22;46.33;;;26.40;;
6519;SDS011;3293;51.690;5.982;2022-12-13T07:44:24;42.80;;;26.00;;
6519;SDS011;3293;51.690;5.982;2022-12-13T07:49:24;43.10;;;25.83;;
6519;SDS011;3293;51.690;5.982;2022-12-13T07:54:23;53.27;;;29.37;;
6519;SDS011;3293;51.690;5.982;2022-12-13T07:59:23;54.70;;;32.63;;
6519;SDS011;3293;51.690;5.982;2022-12-13T08:04:23;53.57;;;31.67;;
6519;SDS011;3293;51.690;5.982;2022-12-13T08:09:24;56.90;;;31.13;;
6519;SDS011;3293;51.690;5.982;2022-12-13T08:14:27;45.57;;;29.47;;
6519;SDS011;3293;51.690;5.982;2022-12-13T08:19:27;50.53;;;27.83;;
6519;SDS011;3293;51.690;5.982;2022-12-13T08:24:28;50.07;;;27.83;;
6519;SDS011;3293;51.690;5.982;2022-12-13T08:29:30;47.13;;;28.23;;
6519;SDS011;3293;51.690;5.982;2022-12-13T08:34:31;49.80;;;28.40;;
6519;SDS011;3293;51.690;5.982;2022-12-13T08:39:31;53.93;;;29.47;;
6519;SDS011;3293;51.690;5.982;2022-12-13T08:44:33;49.17;;;28.93;;
6519;SDS011;3293;51.690;5.982;2022-12-13T08:49:33;56.53;;;30.33;;
6519;SDS011;3293;51.690;5.982;2022-12-13T08:54:33;60.70;;;32.43;;
6519;SDS011;3293;51.690;5.982;2022-12-13T08:59:33;59.67;;;32.97;;
6519;SDS011;3293;51.690;5.982;2022-12-13T09:04:33;56.73;;;30.60;;
6519;SDS011;3293;51.690;5.982;2022-12-13T09:09:33;56.33;;;31.07;;
6519;SDS011;3293;51.690;5.982;2022-12-13T09:14:33;61.20;;;32.30;;
6519;SDS011;3293;51.690;5.982;2022-12-13T09:19:34;64.73;;;33.30;;
6519;SDS011;3293;51.690;5.982;2022-12-13T09:24:33;63.27;;;34.30;;
6519;SDS011;3293;51.690;5.982;2022-12-13T09:29:33;63.83;;;32.90;;
6519;SDS011;3293;51.690;5.982;2022-12-13T09:34:34;61.90;;;34.03;;
6519;SDS011;3293;51.690;5.982;2022-12-13T09:39:34;59.93;;;33.33;;
6519;SDS011;3293;51.690;5.982;2022-12-13T09:44:35;66.00;;;32.63;;
6519;SDS011;3293;51.690;5.982;2022-12-13T09:49:39;60.57;;;33.03;;
6519;SDS011;3293;51.690;5.982;2022-12-13T09:54:43;59.40;;;31.13;;
6519;SDS011;3293;51.690;5.982;2022-12-13T09:59:44;63.57;;;32.13;;
6519;SDS011;3293;51.690;5.982;2022-12-13T10:04:44;59.53;;;33.30;;
6519;SDS011;3293;51.690;5.982;2022-12-13T10:09:44;64.63;;;33.47;;
6519;SDS011;3293;51.690;5.982;2022-12-13T10:14:46;59.37;;;33.60;;
6519;SDS011;3293;51.690;5.982;2022-12-13T10:19:52;57.00;;;32.13;;
6519;SDS011;3293;51.690;5.982;2022-12-13T10:25:03;62.03;;;34.90;;
6519;SDS011;3293;51.690;5.982;2022-12-13T10:35:19;61.87;;;32.90;;
6519;SDS011;3293;51.690;5.982;2022-12-13T10:40:26;57.63;;;32.90;;
6519;SDS011;3293;51.690;5.982;2022-12-13T10:45:31;55.30;;;31.57;;
6519;SDS011;3293;51.690;5.982;2022-12-13T10:50:32;59.47;;;32.77;;
6519;SDS011;3293;51.690;5.982;2022-12-13T10:55:32;58.73;;;31.07;;
6519;SDS011;3293;51.690;5.982;2022-12-13T11:00:39;57.63;;;30.50;;
6519;SDS011;3293;51.690;5.982;2022-12-13T11:05:44;57.73;;;31.27;;
6519;SDS011;3293;51.690;5.982;2022-12-13T11:10:58;62.70;;;32.00;;
6519;SDS011;3293;51.690;5.982;2022-12-13T11:15:59;62.97;;;31.67;;
6519;SDS011;3293;51.690;5.982;2022-12-13T11:21:00;53.03;;;29.90;;
6519;SDS011;3293;51.690;5.982;2022-12-13T11:26:07;53.43;;;31.37;;
6519;SDS011;3293;51.690;5.982;2022-12-13T11:47:12;47.97;;;27.40;;
6519;SDS011;3293;51.690;5.982;2022-12-13T11:52:17;52.23;;;29.07;;
6519;SDS011;3293;51.690;5.982;2022-12-13T12:02:52;45.03;;;25.87;;
6519;SDS011;3293;51.690;5.982;2022-12-13T12:07:58;49.17;;;27.47;;
6519;SDS011;3293;51.690;5.982;2022-12-13T12:13:09;47.80;;;26.57;;
6519;SDS011;3293;51.690;5.982;2022-12-13T12:18:16;44.43;;;25.77;;
6519;SDS011;3293;51.690;5.982;2022-12-13T12:23:26;43.67;;;26.30;;
6519;SDS011;3293;51.690;5.982;2022-12-13T12:33:49;44.80;;;25.07;;
6519;SDS011;3293;51.690;5.982;2022-12-13T12:59:53;41.97;;;24.17;;
6519;SDS011;3293;51.690;5.982;2022-12-13T13:05:21;41.57;;;25.17;;
6519;SDS011;3293;51.690;5.982;2022-12-13T13:10:42;38.33;;;23.87;;
6519;SDS011;3293;51.690;5.982;2022-12-13T13:15:51;40.20;;;23.17;;
6519;SDS011;3293;51.690;5.982;2022-12-13T13:21:23;37.97;;;22.70;;
6519;SDS011;3293;51.690;5.982;2022-12-13T13:26:31;38.73;;;23.13;;
6519;SDS011;3293;51.690;5.982;2022-12-13T13:37:04;40.23;;;23.53;;
6519;SDS011;3293;51.690;5.982;2022-12-13T13:42:20;37.10;;;22.70;;
6519;SDS011;3293;51.690;5.982;2022-12-13T13:47:34;37.97;;;23.10;;
6519;SDS011;3293;51.690;5.982;2022-12-13T13:53:04;42.97;;;24.30;;
6519;SDS011;3293;51.690;5.982;2022-12-13T14:09:27;39.17;;;23.23;;
6519;SDS011;3293;51.690;5.982;2022-12-13T14:14:50;43.17;;;24.47;;
6519;SDS011;3293;51.690;5.982;2022-12-13T14:26:06;37.57;;;23.20;;
6519;SDS011;3293;51.690;5.982;2022-12-13T14:31:25;43.87;;;23.67;;
6519;SDS011;3293;51.690;5.982;2022-12-13T14:36:31;41.07;;;23.03;;
6519;SDS011;3293;51.690;5.982;2022-12-13T14:41:33;38.47;;;20.83;;
6519;SDS011;3293;51.690;5.982;2022-12-13T14:46:48;35.20;;;21.60;;
6519;SDS011;3293;51.690;5.982;2022-12-13T14:57:12;38.70;;;22.53;;
6519;SDS011;3293;51.690;5.982;2022-12-13T15:02:24;38.80;;;23.23;;
6519;SDS011;3293;51.690;5.982;2022-12-13T15:07:36;38.73;;;21.97;;
6519;SDS011;3293;51.690;5.982;2022-12-13T15:12:40;41.23;;;24.00;;
6519;SDS011;3293;51.690;5.982;2022-12-13T15:17:41;44.87;;;26.87;;
6519;SDS011;3293;51.690;5.982;2022-12-13T15:22:41;42.90;;;26.70;;
6519;SDS011;3293;51.690;5.982;2022-12-13T15:27:41;40.10;;;22.83;;
6519;SDS011;3293;51.690;5.982;2022-12-13T15:33:01;40.23;;;23.70;;
6519;SDS011;3293;51.690;5.982;2022-12-13T15:38:21;44.97;;;25.40;;
6519;SDS011;3293;51.690;5.982;2022-12-13T15:43:23;47.13;;;25.83;;
6519;SDS011;3293;51.690;5.982;2022-12-13T15:48:33;39.10;;;23.07;;
6519;SDS011;3293;51.690;5.982;2022-12-13T15:53:37;39.70;;;22.17;;
6519;SDS011;3293;51.690;5.982;2022-12-13T15:58:38;42.13;;;23.40;;
6519;SDS011;3293;51.690;5.982;2022-12-13T16:08:47;40.30;;;22.33;;
6519;SDS011;3293;51.690;5.982;2022-12-13T16:13:49;46.57;;;26.57;;
6519;SDS011;3293;51.690;5.982;2022-12-13T16:18:51;49.63;;;25.67;;
6519;SDS011;3293;51.690;5.982;2022-12-13T16:23:53;42.40;;;23.30;;
6519;SDS011;3293;51.690;5.982;2022-12-13T16:28:53;41.70;;;23.40;;
6519;SDS011;3293;51.690;5.982;2022-12-13T16:33:56;50.40;;;28.43;;
6519;SDS011;3293;51.690;5.982;2022-12-13T16:38:56;55.60;;;29.03;;
6519;SDS011;3293;51.690;5.982;2022-12-13T16:43:57;45.10;;;25.03;;
6519;SDS011;3293;51.690;5.982;2022-12-13T16:49:04;40.43;;;25.70;;
6519;SDS011;3293;51.690;5.982;2022-12-13T16:54:17;46.20;;;25.60;;
6519;SDS011;3293;51.690;5.982;2022-12-13T16:59:19;39.67;;;24.50;;
6519;SDS011;3293;51.690;5.982;2022-12-13T17:04:22;37.17;;;24.00;;
6519;SDS011;3293;51.690;5.982;2022-12-13T17:09:22;39.87;;;24.97;;
6519;SDS011;3293;51.690;5.982;2022-12-13T17:14:23;40.87;;;24.03;;
6519;SDS011;3293;51.690;5.982;2022-12-13T17:19:23;45.73;;;25.83;;
6519;SDS011;3293;51.690;5.982;2022-12-13T17:24:23;39.90;;;24.40;;
6519;SDS011;3293;51.690;5.982;2022-12-13T17:29:23;45.17;;;26.10;;
6519;SDS011;3293;51.690;5.982;2022-12-13T17:34:23;41.20;;;25.77;;
6519;SDS011;3293;51.690;5.982;2022-12-13T17:39:23;39.33;;;24.47;;
6519;SDS011;3293;51.690;5.982;2022-12-13T17:44:24;41.00;;;24.60;;
6519;SDS011;3293;51.690;5.982;2022-12-13T17:49:25;39.07;;;24.47;;
6519;SDS011;3293;51.690;5.982;2022-12-13T17:54:26;41.00;;;24.53;;
6519;SDS011;3293;51.690;5.982;2022-12-13T17:59:27;41.03;;;24.93;;
6519;SDS011;3293;51.690;5.982;2022-12-13T18:04:27;48.77;;;26.87;;
6519;SDS011;3293;51.690;5.982;2022-12-13T18:09:27;42.37;;;26.47;;
6519;SDS011;3293;51.690;5.982;2022-12-13T18:14:27;41.83;;;25.27;;
6519;SDS011;3293;51.690;5.982;2022-12-13T18:19:27;41.60;;;24.83;;
6519;SDS011;3293;51.690;5.982;2022-12-13T18:24:30;45.17;;;24.67;;
6519;SDS011;3293;51.690;5.982;2022-12-13T18:29:32;42.33;;;25.03;;
6519;SDS011;3293;51.690;5.982;2022-12-13T18:34:32;42.37;;;24.27;;
6519;SDS011;3293;51.690;5.982;2022-12-13T18:39:32;39.37;;;25.30;;
6519;SDS011;3293;51.690;5.982;2022-12-13T18:44:33;39.93;;;25.77;;
6519;SDS011;3293;51.690;5.982;2022-12-13T18:49:34;36.53;;;23.83;;
6519;SDS011;3293;51.690;5.982;2022-12-13T18:54:34;38.80;;;25.17;;
6519;SDS011;3293;51.690;5.982;2022-12-13T18:59:35;42.50;;;25.13;;
6519;SDS011;3293;51.690;5.982;2022-12-13T19:04:35;41.73;;;25.53;;
6519;SDS011;3293;51.690;5.982;2022-12-13T19:09:36;43.17;;;26.40;;
6519;SDS011;3293;51.690;5.982;2022-12-13T19:14:36;45.63;;;26.57;;
6519;SDS011;3293;51.690;5.982;2022-12-13T19:19:36;40.97;;;26.57;;
6519;SDS011;3293;51.690;5.982;2022-12-13T19:24:36;43.23;;;25.97;;
6519;SDS011;3293;51.690;5.982;2022-12-13T19:29:36;46.73;;;27.27;;
6519;SDS011;3293;51.690;5.982;2022-12-13T19:34:36;45.97;;;27.20;;
6519;SDS011;3293;51.690;5.982;2022-12-13T19:39:36;44.87;;;28.07;;
6519;SDS011;3293;51.690;5.982;2022-12-13T19:44:36;42.20;;;27.73;;
6519;SDS011;3293;51.690;5.982;2022-12-13T19:49:36;45.53;;;28.00;;
6519;SDS011;3293;51.690;5.982;2022-12-13T19:54:37;48.10;;;28.43;;
6519;SDS011;3293;51.690;5.982;2022-12-13T19:59:37;49.53;;;27.60;;
6519;SDS011;3293;51.690;5.982;2022-12-13T20:04:37;45.67;;;28.83;;
6519;SDS011;3293;51.690;5.982;2022-12-13T20:09:37;43.93;;;26.47;;
6519;SDS011;3293;51.690;5.982;2022-12-13T20:14:40;50.23;;;26.67;;
6519;SDS011;3293;51.690;5.982;2022-12-13T20:19:40;43.87;;;26.30;;
6519;SDS011;3293;51.690;5.982;2022-12-13T20:24:40;42.90;;;25.93;;
6519;SDS011;3293;51.690;5.982;2022-12-13T20:29:40;44.37;;;25.87;;
6519;SDS011;3293;51.690;5.982;2022-12-13T20:34:40;44.47;;;26.50;;
6519;SDS011;3293;51.690;5.982;2022-12-13T20:39:40;38.43;;;24.63;;
6519;SDS011;3293;51.690;5.982;2022-12-13T20:44:41;43.43;;;24.53;;
6519;SDS011;3293;51.690;5.982;2022-12-13T20:49:41;40.57;;;23.27;;
6519;SDS011;3293;51.690;5.982;2022-12-13T20:54:42;35.57;;;22.63;;
6519;SDS011;3293;51.690;5.982;2022-12-13T20:59:43;40.97;;;22.03;;
6519;SDS011;3293;51.690;5.982;2022-12-13T21:04:43;35.23;;;21.90;;
6519;SDS011;3293;51.690;5.982;2022-12-13T21:09:43;34.17;;;21.00;;
6519;SDS011;3293;51.690;5.982;2022-12-13T21:14:45;34.87;;;20.90;;
6519;SDS011;3293;51.690;5.982;2022-12-13T21:19:45;35.83;;;21.73;;
6519;SDS011;3293;51.690;5.982;2022-12-13T21:24:45;37.23;;;22.17;;
6519;SDS011;3293;51.690;5.982;2022-12-13T21:29:45;37.17;;;23.97;;
6519;SDS011;3293;51.690;5.982;2022-12-13T21:34:44;34.13;;;22.40;;
6519;SDS011;3293;51.690;5.982;2022-12-13T21:39:44;37.60;;;22.50;;
6519;SDS011;3293;51.690;5.982;2022-12-13T21:44:44;37.60;;;22.67;;
6519;SDS011;3293;51.690;5.982;2022-12-13T21:49:44;36.37;;;23.37;;
6519;SDS011;3293;51.690;5.982;2022-12-13T21:54:44;36.60;;;23.33;;
6519;SDS011;3293;51.690;5.982;2022-12-13T21:59:44;38.50;;;24.67;;
6519;SDS011;3293;51.690;5.982;2022-12-13T22:09:52;34.10;;;21.70;;
6519;SDS011;3293;51.690;5.982;2022-12-13T22:14:52;31.80;;;19.03;;
6519;SDS011;3293;51.690;5.982;2022-12-13T22:19:53;27.73;;;19.13;;
6519;SDS011;3293;51.690;5.982;2022-12-13T22:24:55;30.63;;;19.43;;
6519;SDS011;3293;51.690;5.982;2022-12-13T22:29:55;26.60;;;17.40;;
6519;SDS011;3293;51.690;5.982;2022-12-13T22:34:55;26.83;;;17.63;;
6519;SDS011;3293;51.690;5.982;2022-12-13T22:39:56;31.90;;;18.17;;
6519;SDS011;3293;51.690;5.982;2022-12-13T22:44:55;27.13;;;16.67;;
6519;SDS011;3293;51.690;5.982;2022-12-13T22:49:55;25.27;;;17.00;;
6519;SDS011;3293;51.690;5.982;2022-12-13T22:55:01;24.93;;;16.83;;
6519;SDS011;3293;51.690;5.982;2022-12-13T23:00:01;26.13;;;15.83;;
6519;SDS011;3293;51.690;5.982;2022-12-13T23:05:01;26.77;;;15.17;;
6519;SDS011;3293;51.690;5.982;2022-12-13T23:10:02;27.90;;;14.60;;
6519;SDS011;3293;51.690;5.982;2022-12-13T23:15:02;20.70;;;13.03;;
6519;SDS011;3293;51.690;5.982;2022-12-13T23:20:03;23.27;;;14.43;;
6519;SDS011;3293;51.690;5.982;2022-12-13T23:25:03;20.20;;;13.70;;
6519;SDS011;3293;51.690;5.982;2022-12-13T23:30:06;25.17;;;15.03;;
6519;SDS011;3293;51.690;5.982;2022-12-13T23:35:07;22.63;;;14.50;;
6519;SDS011;3293;51.690;5.982;2022-12-13T23:40:08;24.37;;;15.43;;
6519;SDS011;3293;51.690;5.982;2022-12-13T23:45:09;22.43;;;14.13;;
6519;SDS011;3293;51.690;5.982;2022-12-13T23:50:09;24.23;;;14.83;;
6519;SDS011;3293;51.690;5.982;2022-12-13T23:55:09;24.93;;;14.73;;
